Lincolnville, KS (66858)

5:43 AM CDT on August 30, 2015 (GMT -0500)
Marion County Lake | | Change Station
CLOSE
Current Station
Personal Weather Station
Location: Marion, KS
Elevation: 1362 ft
Nearby Weather Stations
Active Advisory: Dense Fog Advisory

Elev 1362 ft 38.32 °N, 96.99 °W | Updated 3 seconds ago

Fog
Fog
65.5 °F
Feels Like 65.5 °F
N
2.2
Wind Variable Wind from SW
Gusts 3.8 mph

Today
High -- | Low -- °F
--% Chance of Precip.
Yesterday
High -- | Low -- °F
Precip. -- in
6:55 AM 8:01 PM
Full, 99% visible
Pressure 30.05 in
Visibility 0.2 miles
Clouds Overcast 200 ft
Dew Point 64 °F
Humidity 95%
Rainfall 0.00 in
Snow Depth Not available.
UV 0 out of 12
Pollen 10.60 out of 12
Air Quality Not available.
Flu Activity Not available.
METAR KEWK 301035Z AUTO 08003KT 1/4SM OVC002 16/13 A3005 RMK AO1
Pressure 30.05 in
Visibility 0.2 miles
Clouds Overcast 200 ft
Dew Point 64 °F
Humidity 95%
Rainfall 0.00 in
Snow Depth Not available.
UV 0 out of 12
Pollen 10.60 out of 12
Air Quality Not available.
Flu Activity Not available.
METAR KEWK 301035Z AUTO 08003KT 1/4SM OVC002 16/13 A3005 RMK AO1

10-Day Weather Forecast

×

Almanac

Astronomy

Aug. 30, 2015 Rise Set
Actual Time
Civil Twilight
Nautical Twilight
Astronomical Twilight
Moon
Length of Visible Light
Length of Day
Tomorrow will be .
, % of the Moon is Illuminated

Today's Extremes

State Highs State Lows

Community

WunderPhotos

Upload Photos

1,850,925 photos uploaded!

WunderBlogs® & News

Nearby

Air Quality

  Air Quality AQ Index Pollutant
Not available.

Snow Depth

Station Depth Elevation

Earthquake Activity

City Distance Mag. Time & Date
Minimum magnitude displayed is 2.5.

Coastal Water Temperatures

Place Temperature

Stations

Nearby Weather Stations

Station Location Temp. Windchill Dew Point Humidity Wind Precip. Elev Updated Type
                   
Dense Fog Advisory
Statement as of 4:13 AM CDT on August 30, 2015

... Dense fog advisory in effect until 10 am CDT this morning...

The National Weather Service in Wichita has issued a dense fog
advisory... which is in effect until 10 am CDT this morning.

* Timing... conditions will continue to deteriorate through 8 am...
with conditions expected to improve by 10 am.

* Impacts... areas with visibilities of less that one quarter mile
are likely. The dense fog is likely along highways 50 and
56... I-70 and I-135 between Newton and Salina. Abrupt changes in
visibilities are also likely across the Flint Hills.

Precautionary/preparedness actions...

A dense fog advisory means visibilities will frequently be
reduced to less than one quarter mile. If driving... slow down.
Use your headlights and leave plenty of distance ahead of you.



Howerton